sensor_id;sensor_type;location;lat;lon;timestamp;P1;durP1;ratioP1;P2;durP2;ratioP2
65759;SDS011;52496;51.082;5.066;2023-10-13T00:02:02;16.30;;;7.50;;
65759;SDS011;52496;51.082;5.066;2023-10-13T00:04:34;24.00;;;7.45;;
65759;SDS011;52496;51.082;5.066;2023-10-13T00:07:08;14.70;;;7.60;;
65759;SDS011;52496;51.082;5.066;2023-10-13T00:09:40;18.58;;;7.93;;
65759;SDS011;52496;51.082;5.066;2023-10-13T00:12:10;18.70;;;7.47;;
65759;SDS011;52496;51.082;5.066;2023-10-13T00:14:43;15.82;;;8.57;;
65759;SDS011;52496;51.082;5.066;2023-10-13T00:17:15;18.85;;;8.73;;
65759;SDS011;52496;51.082;5.066;2023-10-13T00:19:50;16.63;;;9.05;;
65759;SDS011;52496;51.082;5.066;2023-10-13T00:22:23;18.60;;;8.35;;
65759;SDS011;52496;51.082;5.066;2023-10-13T00:24:54;16.90;;;8.75;;
65759;SDS011;52496;51.082;5.066;2023-10-13T00:27:28;19.23;;;8.68;;
65759;SDS011;52496;51.082;5.066;2023-10-13T00:30:11;20.23;;;10.20;;
65759;SDS011;52496;51.082;5.066;2023-10-13T00:32:51;19.45;;;8.90;;
65759;SDS011;52496;51.082;5.066;2023-10-13T00:35:27;18.42;;;8.48;;
65759;SDS011;52496;51.082;5.066;2023-10-13T00:38:07;20.55;;;10.55;;
65759;SDS011;52496;51.082;5.066;2023-10-13T00:40:44;23.25;;;9.95;;
65759;SDS011;52496;51.082;5.066;2023-10-13T00:43:22;23.70;;;11.40;;
65759;SDS011;52496;51.082;5.066;2023-10-13T00:45:53;18.05;;;9.57;;
65759;SDS011;52496;51.082;5.066;2023-10-13T00:48:30;27.30;;;10.95;;
65759;SDS011;52496;51.082;5.066;2023-10-13T00:51:04;20.30;;;10.50;;
65759;SDS011;52496;51.082;5.066;2023-10-13T00:53:42;25.23;;;9.82;;
65759;SDS011;52496;51.082;5.066;2023-10-13T00:56:14;19.48;;;9.57;;
65759;SDS011;52496;51.082;5.066;2023-10-13T00:58:54;21.52;;;10.50;;
65759;SDS011;52496;51.082;5.066;2023-10-13T01:01:28;20.40;;;10.25;;
65759;SDS011;52496;51.082;5.066;2023-10-13T01:04:02;22.73;;;9.85;;
65759;SDS011;52496;51.082;5.066;2023-10-13T01:06:35;23.98;;;10.77;;
65759;SDS011;52496;51.082;5.066;2023-10-13T01:09:08;24.55;;;10.20;;
65759;SDS011;52496;51.082;5.066;2023-10-13T01:11:49;20.73;;;9.98;;
65759;SDS011;52496;51.082;5.066;2023-10-13T01:14:24;24.10;;;10.30;;
65759;SDS011;52496;51.082;5.066;2023-10-13T01:16:57;22.42;;;9.35;;
65759;SDS011;52496;51.082;5.066;2023-10-13T01:19:28;20.83;;;10.13;;
65759;SDS011;52496;51.082;5.066;2023-10-13T01:21:59;23.90;;;11.38;;
65759;SDS011;52496;51.082;5.066;2023-10-13T01:24:33;26.45;;;11.45;;
65759;SDS011;52496;51.082;5.066;2023-10-13T01:27:05;22.08;;;10.05;;
65759;SDS011;52496;51.082;5.066;2023-10-13T01:29:50;24.95;;;11.35;;
65759;SDS011;52496;51.082;5.066;2023-10-13T01:32:25;21.25;;;10.95;;
65759;SDS011;52496;51.082;5.066;2023-10-13T01:34:56;28.42;;;10.57;;
65759;SDS011;52496;51.082;5.066;2023-10-13T01:37:30;28.50;;;10.25;;
65759;SDS011;52496;51.082;5.066;2023-10-13T01:40:00;25.38;;;10.75;;
65759;SDS011;52496;51.082;5.066;2023-10-13T01:42:30;20.10;;;9.93;;
65759;SDS011;52496;51.082;5.066;2023-10-13T01:45:01;21.85;;;9.52;;
65759;SDS011;52496;51.082;5.066;2023-10-13T01:47:35;23.05;;;10.60;;
65759;SDS011;52496;51.082;5.066;2023-10-13T01:50:06;23.75;;;11.18;;
65759;SDS011;52496;51.082;5.066;2023-10-13T01:52:44;24.13;;;10.88;;
65759;SDS011;52496;51.082;5.066;2023-10-13T01:55:14;20.50;;;10.90;;
65759;SDS011;52496;51.082;5.066;2023-10-13T01:57:45;21.35;;;9.02;;
65759;SDS011;52496;51.082;5.066;2023-10-13T02:00:17;20.08;;;9.68;;
65759;SDS011;52496;51.082;5.066;2023-10-13T02:02:51;20.27;;;11.10;;
65759;SDS011;52496;51.082;5.066;2023-10-13T02:05:22;20.92;;;9.13;;
65759;SDS011;52496;51.082;5.066;2023-10-13T02:07:57;23.90;;;9.65;;
65759;SDS011;52496;51.082;5.066;2023-10-13T02:10:31;20.92;;;8.77;;
65759;SDS011;52496;51.082;5.066;2023-10-13T02:13:02;18.65;;;10.20;;
65759;SDS011;52496;51.082;5.066;2023-10-13T02:15:33;23.27;;;10.15;;
65759;SDS011;52496;51.082;5.066;2023-10-13T02:18:04;22.35;;;10.77;;
65759;SDS011;52496;51.082;5.066;2023-10-13T02:20:36;22.30;;;10.40;;
65759;SDS011;52496;51.082;5.066;2023-10-13T02:23:13;18.45;;;9.20;;
65759;SDS011;52496;51.082;5.066;2023-10-13T02:25:44;19.42;;;9.18;;
65759;SDS011;52496;51.082;5.066;2023-10-13T02:28:15;20.75;;;10.57;;
65759;SDS011;52496;51.082;5.066;2023-10-13T02:30:51;21.08;;;9.75;;
65759;SDS011;52496;51.082;5.066;2023-10-13T02:33:23;17.25;;;9.27;;
65759;SDS011;52496;51.082;5.066;2023-10-13T02:36:00;16.27;;;9.02;;
65759;SDS011;52496;51.082;5.066;2023-10-13T02:38:35;18.75;;;8.35;;
65759;SDS011;52496;51.082;5.066;2023-10-13T02:41:12;16.90;;;8.25;;
65759;SDS011;52496;51.082;5.066;2023-10-13T02:43:55;18.92;;;9.50;;
65759;SDS011;52496;51.082;5.066;2023-10-13T02:46:26;18.20;;;9.60;;
65759;SDS011;52496;51.082;5.066;2023-10-13T02:48:59;17.77;;;8.80;;
65759;SDS011;52496;51.082;5.066;2023-10-13T02:51:39;25.23;;;10.27;;
65759;SDS011;52496;51.082;5.066;2023-10-13T02:54:13;25.85;;;9.23;;
65759;SDS011;52496;51.082;5.066;2023-10-13T02:56:48;17.92;;;9.95;;
65759;SDS011;52496;51.082;5.066;2023-10-13T02:59:28;23.38;;;10.30;;
65759;SDS011;52496;51.082;5.066;2023-10-13T03:02:08;17.33;;;8.40;;
65759;SDS011;52496;51.082;5.066;2023-10-13T03:04:54;21.45;;;9.32;;
65759;SDS011;52496;51.082;5.066;2023-10-13T03:07:43;23.60;;;9.63;;
65759;SDS011;52496;51.082;5.066;2023-10-13T03:10:14;18.70;;;9.43;;
65759;SDS011;52496;51.082;5.066;2023-10-13T03:12:45;19.10;;;8.45;;
65759;SDS011;52496;51.082;5.066;2023-10-13T03:15:18;23.63;;;10.00;;
65759;SDS011;52496;51.082;5.066;2023-10-13T03:17:52;18.48;;;9.88;;
65759;SDS011;52496;51.082;5.066;2023-10-13T03:20:25;21.85;;;8.77;;
65759;SDS011;52496;51.082;5.066;2023-10-13T03:23:05;21.73;;;9.85;;
65759;SDS011;52496;51.082;5.066;2023-10-13T03:25:39;19.02;;;10.52;;
65759;SDS011;52496;51.082;5.066;2023-10-13T03:28:12;20.20;;;9.88;;
65759;SDS011;52496;51.082;5.066;2023-10-13T03:30:46;18.30;;;9.77;;
65759;SDS011;52496;51.082;5.066;2023-10-13T03:33:22;19.58;;;8.52;;
65759;SDS011;52496;51.082;5.066;2023-10-13T03:35:56;19.17;;;8.80;;
65759;SDS011;52496;51.082;5.066;2023-10-13T03:38:35;17.85;;;8.07;;
65759;SDS011;52496;51.082;5.066;2023-10-13T03:41:06;20.35;;;8.75;;
65759;SDS011;52496;51.082;5.066;2023-10-13T03:43:38;17.17;;;9.43;;
65759;SDS011;52496;51.082;5.066;2023-10-13T03:46:22;18.13;;;8.77;;
65759;SDS011;52496;51.082;5.066;2023-10-13T03:48:52;27.15;;;9.15;;
65759;SDS011;52496;51.082;5.066;2023-10-13T03:51:31;15.98;;;7.50;;
65759;SDS011;52496;51.082;5.066;2023-10-13T03:54:02;16.30;;;8.70;;
65759;SDS011;52496;51.082;5.066;2023-10-13T03:56:37;15.77;;;7.90;;
65759;SDS011;52496;51.082;5.066;2023-10-13T03:59:11;18.85;;;8.88;;
65759;SDS011;52496;51.082;5.066;2023-10-13T04:01:45;20.05;;;9.50;;
65759;SDS011;52496;51.082;5.066;2023-10-13T04:04:17;19.33;;;8.63;;
65759;SDS011;52496;51.082;5.066;2023-10-13T04:07:07;24.10;;;8.80;;
65759;SDS011;52496;51.082;5.066;2023-10-13T04:09:38;17.45;;;9.05;;
65759;SDS011;52496;51.082;5.066;2023-10-13T04:12:09;22.92;;;8.88;;
65759;SDS011;52496;51.082;5.066;2023-10-13T04:14:43;19.23;;;8.80;;
65759;SDS011;52496;51.082;5.066;2023-10-13T04:17:33;23.58;;;8.35;;
65759;SDS011;52496;51.082;5.066;2023-10-13T04:20:10;19.63;;;7.88;;
65759;SDS011;52496;51.082;5.066;2023-10-13T04:22:41;21.33;;;8.35;;
65759;SDS011;52496;51.082;5.066;2023-10-13T04:28:06;17.08;;;7.72;;
65759;SDS011;52496;51.082;5.066;2023-10-13T04:30:47;14.95;;;6.95;;
65759;SDS011;52496;51.082;5.066;2023-10-13T04:33:33;19.02;;;7.63;;
65759;SDS011;52496;51.082;5.066;2023-10-13T04:36:22;16.05;;;6.55;;
65759;SDS011;52496;51.082;5.066;2023-10-13T04:38:56;18.00;;;7.47;;
65759;SDS011;52496;51.082;5.066;2023-10-13T04:41:43;17.20;;;6.88;;
65759;SDS011;52496;51.082;5.066;2023-10-13T04:44:19;16.65;;;7.03;;
65759;SDS011;52496;51.082;5.066;2023-10-13T04:47:08;15.93;;;5.97;;
65759;SDS011;52496;51.082;5.066;2023-10-13T04:49:39;16.33;;;6.75;;
65759;SDS011;52496;51.082;5.066;2023-10-13T04:52:13;13.70;;;6.38;;
65759;SDS011;52496;51.082;5.066;2023-10-13T04:55:04;12.38;;;6.60;;
65759;SDS011;52496;51.082;5.066;2023-10-13T04:57:54;12.00;;;5.63;;
65759;SDS011;52496;51.082;5.066;2023-10-13T05:00:40;13.10;;;5.60;;
65759;SDS011;52496;51.082;5.066;2023-10-13T05:03:13;15.52;;;5.88;;
65759;SDS011;52496;51.082;5.066;2023-10-13T05:06:02;15.98;;;5.43;;
65759;SDS011;52496;51.082;5.066;2023-10-13T05:09:02;13.43;;;5.32;;
65759;SDS011;52496;51.082;5.066;2023-10-13T05:11:51;11.82;;;5.03;;
65759;SDS011;52496;51.082;5.066;2023-10-13T05:14:40;10.40;;;4.95;;
65759;SDS011;52496;51.082;5.066;2023-10-13T05:17:29;17.02;;;5.47;;
65759;SDS011;52496;51.082;5.066;2023-10-13T05:20:29;13.73;;;5.63;;
65759;SDS011;52496;51.082;5.066;2023-10-13T05:23:20;14.55;;;4.63;;
65759;SDS011;52496;51.082;5.066;2023-10-13T05:26:09;13.50;;;4.95;;
65759;SDS011;52496;51.082;5.066;2023-10-13T05:28:58;10.23;;;5.10;;
65759;SDS011;52496;51.082;5.066;2023-10-13T05:31:47;8.05;;;3.95;;
65759;SDS011;52496;51.082;5.066;2023-10-13T05:34:36;10.48;;;4.53;;
65759;SDS011;52496;51.082;5.066;2023-10-13T05:37:25;8.98;;;4.43;;
65759;SDS011;52496;51.082;5.066;2023-10-13T05:40:14;15.70;;;4.97;;
65759;SDS011;52496;51.082;5.066;2023-10-13T05:43:03;12.93;;;4.53;;
65759;SDS011;52496;51.082;5.066;2023-10-13T05:45:52;11.98;;;4.85;;
65759;SDS011;52496;51.082;5.066;2023-10-13T05:48:41;13.82;;;5.35;;
65759;SDS011;52496;51.082;5.066;2023-10-13T05:51:30;12.63;;;4.82;;
65759;SDS011;52496;51.082;5.066;2023-10-13T05:54:19;11.75;;;4.78;;
65759;SDS011;52496;51.082;5.066;2023-10-13T05:56:52;12.63;;;4.95;;
65759;SDS011;52496;51.082;5.066;2023-10-13T05:59:41;13.30;;;4.72;;
65759;SDS011;52496;51.082;5.066;2023-10-13T06:02:30;11.63;;;5.28;;
65759;SDS011;52496;51.082;5.066;2023-10-13T06:05:19;11.20;;;5.00;;
65759;SDS011;52496;51.082;5.066;2023-10-13T06:08:08;15.20;;;5.68;;
65759;SDS011;52496;51.082;5.066;2023-10-13T06:11:01;16.27;;;5.22;;
65759;SDS011;52496;51.082;5.066;2023-10-13T06:13:50;13.10;;;4.88;;
65759;SDS011;52496;51.082;5.066;2023-10-13T06:16:39;11.10;;;4.68;;
65759;SDS011;52496;51.082;5.066;2023-10-13T06:19:28;18.77;;;4.88;;
65759;SDS011;52496;51.082;5.066;2023-10-13T06:22:17;10.85;;;5.57;;
65759;SDS011;52496;51.082;5.066;2023-10-13T06:25:06;13.38;;;5.38;;
65759;SDS011;52496;51.082;5.066;2023-10-13T06:27:55;11.52;;;5.10;;
65759;SDS011;52496;51.082;5.066;2023-10-13T06:30:53;12.70;;;5.55;;
65759;SDS011;52496;51.082;5.066;2023-10-13T06:33:26;18.40;;;6.40;;
65759;SDS011;52496;51.082;5.066;2023-10-13T06:36:02;23.40;;;5.82;;
65759;SDS011;52496;51.082;5.066;2023-10-13T06:38:33;7.78;;;4.07;;
65759;SDS011;52496;51.082;5.066;2023-10-13T06:41:06;14.75;;;5.80;;
65759;SDS011;52496;51.082;5.066;2023-10-13T06:43:37;9.60;;;5.50;;
65759;SDS011;52496;51.082;5.066;2023-10-13T06:46:10;12.02;;;5.20;;
65759;SDS011;52496;51.082;5.066;2023-10-13T06:48:46;13.30;;;5.07;;
65759;SDS011;52496;51.082;5.066;2023-10-13T06:51:20;12.43;;;5.30;;
65759;SDS011;52496;51.082;5.066;2023-10-13T06:53:56;13.38;;;5.10;;
65759;SDS011;52496;51.082;5.066;2023-10-13T06:56:27;11.68;;;5.95;;
65759;SDS011;52496;51.082;5.066;2023-10-13T06:58:58;13.63;;;4.78;;
65759;SDS011;52496;51.082;5.066;2023-10-13T07:01:34;12.88;;;4.55;;
65759;SDS011;52496;51.082;5.066;2023-10-13T07:04:12;10.88;;;4.95;;
65759;SDS011;52496;51.082;5.066;2023-10-13T07:06:46;10.18;;;5.00;;
65759;SDS011;52496;51.082;5.066;2023-10-13T07:09:20;16.65;;;5.55;;
65759;SDS011;52496;51.082;5.066;2023-10-13T07:12:05;14.90;;;5.47;;
65759;SDS011;52496;51.082;5.066;2023-10-13T07:14:37;13.75;;;5.88;;
65759;SDS011;52496;51.082;5.066;2023-10-13T07:17:07;8.43;;;4.32;;
65759;SDS011;52496;51.082;5.066;2023-10-13T07:19:38;17.10;;;5.35;;
65759;SDS011;52496;51.082;5.066;2023-10-13T07:22:23;17.27;;;5.93;;
65759;SDS011;52496;51.082;5.066;2023-10-13T07:24:53;13.32;;;5.05;;
65759;SDS011;52496;51.082;5.066;2023-10-13T07:27:24;11.75;;;5.65;;
65759;SDS011;52496;51.082;5.066;2023-10-13T07:29:55;14.98;;;4.60;;
65759;SDS011;52496;51.082;5.066;2023-10-13T07:32:36;14.88;;;4.90;;
65759;SDS011;52496;51.082;5.066;2023-10-13T07:35:06;12.18;;;4.65;;
65759;SDS011;52496;51.082;5.066;2023-10-13T07:37:42;16.33;;;4.68;;
65759;SDS011;52496;51.082;5.066;2023-10-13T07:40:12;12.27;;;4.63;;
65759;SDS011;52496;51.082;5.066;2023-10-13T07:42:55;11.60;;;4.35;;
65759;SDS011;52496;51.082;5.066;2023-10-13T07:45:40;11.93;;;4.40;;
65759;SDS011;52496;51.082;5.066;2023-10-13T07:48:11;10.23;;;4.22;;
65759;SDS011;52496;51.082;5.066;2023-10-13T07:51:07;12.32;;;5.57;;
65759;SDS011;52496;51.082;5.066;2023-10-13T07:53:42;12.35;;;4.25;;
65759;SDS011;52496;51.082;5.066;2023-10-13T07:56:18;11.48;;;4.38;;
65759;SDS011;52496;51.082;5.066;2023-10-13T07:58:51;11.23;;;4.07;;
65759;SDS011;52496;51.082;5.066;2023-10-13T08:01:30;11.43;;;5.13;;
65759;SDS011;52496;51.082;5.066;2023-10-13T08:04:02;10.73;;;5.00;;
65759;SDS011;52496;51.082;5.066;2023-10-13T08:06:41;8.90;;;4.75;;
65759;SDS011;52496;51.082;5.066;2023-10-13T08:09:13;7.78;;;3.83;;
65759;SDS011;52496;51.082;5.066;2023-10-13T08:12:10;8.55;;;5.03;;
65759;SDS011;52496;51.082;5.066;2023-10-13T08:14:42;11.05;;;4.70;;
65759;SDS011;52496;51.082;5.066;2023-10-13T08:17:14;12.32;;;4.35;;
65759;SDS011;52496;51.082;5.066;2023-10-13T08:19:45;8.50;;;4.05;;
65759;SDS011;52496;51.082;5.066;2023-10-13T08:22:16;11.57;;;4.70;;
65759;SDS011;52496;51.082;5.066;2023-10-13T08:24:50;13.05;;;5.20;;
65759;SDS011;52496;51.082;5.066;2023-10-13T08:27:21;10.88;;;4.13;;
65759;SDS011;52496;51.082;5.066;2023-10-13T08:30:04;8.32;;;4.63;;
65759;SDS011;52496;51.082;5.066;2023-10-13T08:32:53;8.63;;;4.13;;
65759;SDS011;52496;51.082;5.066;2023-10-13T08:35:24;10.00;;;4.82;;
65759;SDS011;52496;51.082;5.066;2023-10-13T08:38:05;7.95;;;3.95;;
65759;SDS011;52496;51.082;5.066;2023-10-13T08:40:44;11.02;;;5.32;;
65759;SDS011;52496;51.082;5.066;2023-10-13T08:43:46;14.02;;;4.35;;
65759;SDS011;52496;51.082;5.066;2023-10-13T08:46:23;10.30;;;4.30;;
65759;SDS011;52496;51.082;5.066;2023-10-13T08:49:01;16.27;;;4.63;;
65759;SDS011;52496;51.082;5.066;2023-10-13T08:51:44;13.55;;;4.40;;
65759;SDS011;52496;51.082;5.066;2023-10-13T08:54:37;12.02;;;4.28;;
65759;SDS011;52496;51.082;5.066;2023-10-13T08:57:16;11.80;;;4.28;;
65759;SDS011;52496;51.082;5.066;2023-10-13T09:00:04;13.55;;;4.65;;
65759;SDS011;52496;51.082;5.066;2023-10-13T09:02:54;10.65;;;4.45;;
65759;SDS011;52496;51.082;5.066;2023-10-13T09:05:50;9.93;;;4.75;;
65759;SDS011;52496;51.082;5.066;2023-10-13T09:08:36;9.27;;;4.38;;
65759;SDS011;52496;51.082;5.066;2023-10-13T09:11:14;13.65;;;4.35;;
65759;SDS011;52496;51.082;5.066;2023-10-13T09:13:50;13.45;;;5.22;;
65759;SDS011;52496;51.082;5.066;2023-10-13T09:16:23;9.32;;;5.20;;
65759;SDS011;52496;51.082;5.066;2023-10-13T09:19:09;9.75;;;4.22;;
65759;SDS011;52496;51.082;5.066;2023-10-13T09:21:41;8.65;;;4.03;;
65759;SDS011;52496;51.082;5.066;2023-10-13T09:24:12;11.30;;;4.45;;
65759;SDS011;52496;51.082;5.066;2023-10-13T09:26:51;11.23;;;4.90;;
65759;SDS011;52496;51.082;5.066;2023-10-13T09:29:25;10.07;;;4.43;;
65759;SDS011;52496;51.082;5.066;2023-10-13T09:32:00;12.75;;;5.57;;
65759;SDS011;52496;51.082;5.066;2023-10-13T09:34:33;12.98;;;4.72;;
65759;SDS011;52496;51.082;5.066;2023-10-13T09:37:04;9.05;;;4.38;;
65759;SDS011;52496;51.082;5.066;2023-10-13T09:39:34;9.23;;;4.32;;
65759;SDS011;52496;51.082;5.066;2023-10-13T09:42:31;11.18;;;5.85;;
65759;SDS011;52496;51.082;5.066;2023-10-13T09:45:04;11.43;;;5.40;;
65759;SDS011;52496;51.082;5.066;2023-10-13T09:47:36;13.13;;;4.78;;
65759;SDS011;52496;51.082;5.066;2023-10-13T09:50:08;12.20;;;4.95;;
65759;SDS011;52496;51.082;5.066;2023-10-13T09:52:54;12.10;;;4.82;;
65759;SDS011;52496;51.082;5.066;2023-10-13T09:55:27;10.95;;;4.93;;
65759;SDS011;52496;51.082;5.066;2023-10-13T09:58:04;10.20;;;4.78;;
65759;SDS011;52496;51.082;5.066;2023-10-13T10:00:51;9.35;;;4.22;;
65759;SDS011;52496;51.082;5.066;2023-10-13T10:03:46;14.82;;;4.57;;
65759;SDS011;52496;51.082;5.066;2023-10-13T10:06:23;15.70;;;5.13;;
65759;SDS011;52496;51.082;5.066;2023-10-13T10:09:10;12.48;;;5.05;;
65759;SDS011;52496;51.082;5.066;2023-10-13T10:17:12;15.50;;;5.15;;
65759;SDS011;52496;51.082;5.066;2023-10-13T10:19:47;9.73;;;4.57;;
65759;SDS011;52496;51.082;5.066;2023-10-13T10:22:28;9.57;;;4.63;;
65759;SDS011;52496;51.082;5.066;2023-10-13T10:25:09;12.85;;;4.55;;
65759;SDS011;52496;51.082;5.066;2023-10-13T10:28:06;14.65;;;4.32;;
65759;SDS011;52496;51.082;5.066;2023-10-13T10:30:38;9.43;;;4.72;;
65759;SDS011;52496;51.082;5.066;2023-10-13T10:33:09;7.93;;;4.05;;
65759;SDS011;52496;51.082;5.066;2023-10-13T10:35:46;12.85;;;5.03;;
65759;SDS011;52496;51.082;5.066;2023-10-13T10:38:28;8.73;;;4.00;;
65759;SDS011;52496;51.082;5.066;2023-10-13T10:41:00;11.55;;;4.50;;
65759;SDS011;52496;51.082;5.066;2023-10-13T10:46:15;11.38;;;4.32;;
65759;SDS011;52496;51.082;5.066;2023-10-13T10:48:47;9.77;;;4.45;;
65759;SDS011;52496;51.082;5.066;2023-10-13T10:51:18;15.02;;;4.97;;
65759;SDS011;52496;51.082;5.066;2023-10-13T10:53:52;9.05;;;4.35;;
65759;SDS011;52496;51.082;5.066;2023-10-13T10:56:24;9.55;;;4.57;;
65759;SDS011;52496;51.082;5.066;2023-10-13T10:59:05;9.57;;;4.60;;
65759;SDS011;52496;51.082;5.066;2023-10-13T11:01:48;14.02;;;4.57;;
65759;SDS011;52496;51.082;5.066;2023-10-13T11:04:21;13.07;;;4.97;;
65759;SDS011;52496;51.082;5.066;2023-10-13T11:06:58;13.57;;;4.78;;
65759;SDS011;52496;51.082;5.066;2023-10-13T11:09:29;14.35;;;4.07;;
65759;SDS011;52496;51.082;5.066;2023-10-13T11:12:15;9.35;;;4.32;;
65759;SDS011;52496;51.082;5.066;2023-10-13T11:14:46;15.50;;;4.70;;
65759;SDS011;52496;51.082;5.066;2023-10-13T11:17:19;11.73;;;4.55;;
65759;SDS011;52496;51.082;5.066;2023-10-13T11:20:12;14.70;;;4.40;;
65759;SDS011;52496;51.082;5.066;2023-10-13T11:22:47;11.60;;;4.55;;
65759;SDS011;52496;51.082;5.066;2023-10-13T11:25:20;10.20;;;4.78;;
65759;SDS011;52496;51.082;5.066;2023-10-13T11:30:50;16.27;;;4.22;;
65759;SDS011;52496;51.082;5.066;2023-10-13T11:33:20;11.63;;;4.70;;
65759;SDS011;52496;51.082;5.066;2023-10-13T11:35:54;13.73;;;4.72;;
65759;SDS011;52496;51.082;5.066;2023-10-13T11:38:26;12.25;;;4.13;;
65759;SDS011;52496;51.082;5.066;2023-10-13T11:41:00;16.70;;;4.75;;
65759;SDS011;52496;51.082;5.066;2023-10-13T11:43:45;13.60;;;4.82;;
65759;SDS011;52496;51.082;5.066;2023-10-13T11:46:21;14.23;;;5.15;;
65759;SDS011;52496;51.082;5.066;2023-10-13T11:49:08;18.00;;;4.35;;
65759;SDS011;52496;51.082;5.066;2023-10-13T11:51:46;10.73;;;4.28;;
65759;SDS011;52496;51.082;5.066;2023-10-13T11:54:19;10.60;;;5.05;;
65759;SDS011;52496;51.082;5.066;2023-10-13T11:56:51;12.73;;;5.15;;
65759;SDS011;52496;51.082;5.066;2023-10-13T11:59:22;13.85;;;4.45;;
65759;SDS011;52496;51.082;5.066;2023-10-13T12:01:57;14.20;;;4.88;;
65759;SDS011;52496;51.082;5.066;2023-10-13T12:04:46;13.32;;;4.47;;
65759;SDS011;52496;51.082;5.066;2023-10-13T12:07:24;18.15;;;4.82;;
65759;SDS011;52496;51.082;5.066;2023-10-13T12:10:15;7.93;;;3.90;;
65759;SDS011;52496;51.082;5.066;2023-10-13T12:12:50;14.80;;;5.07;;
65759;SDS011;52496;51.082;5.066;2023-10-13T12:15:24;9.95;;;4.47;;
65759;SDS011;52496;51.082;5.066;2023-10-13T12:18:06;11.90;;;4.40;;
65759;SDS011;52496;51.082;5.066;2023-10-13T12:20:37;10.48;;;4.05;;
65759;SDS011;52496;51.082;5.066;2023-10-13T12:23:15;18.35;;;4.95;;
65759;SDS011;52496;51.082;5.066;2023-10-13T12:25:47;16.17;;;4.78;;
65759;SDS011;52496;51.082;5.066;2023-10-13T12:28:30;10.95;;;4.60;;
65759;SDS011;52496;51.082;5.066;2023-10-13T12:31:07;12.05;;;4.88;;
65759;SDS011;52496;51.082;5.066;2023-10-13T12:33:38;11.57;;;4.65;;
65759;SDS011;52496;51.082;5.066;2023-10-13T12:36:10;9.23;;;4.15;;
65759;SDS011;52496;51.082;5.066;2023-10-13T12:38:43;11.43;;;4.22;;
65759;SDS011;52496;51.082;5.066;2023-10-13T12:41:17;10.93;;;3.97;;
65759;SDS011;52496;51.082;5.066;2023-10-13T12:44:07;9.52;;;4.00;;
65759;SDS011;52496;51.082;5.066;2023-10-13T12:46:56;14.23;;;3.92;;
65759;SDS011;52496;51.082;5.066;2023-10-13T12:49:45;11.55;;;4.63;;
65759;SDS011;52496;51.082;5.066;2023-10-13T12:52:19;8.80;;;3.85;;
65759;SDS011;52496;51.082;5.066;2023-10-13T12:54:50;17.80;;;4.45;;
65759;SDS011;52496;51.082;5.066;2023-10-13T12:57:27;9.95;;;4.18;;
65759;SDS011;52496;51.082;5.066;2023-10-13T12:59:58;11.13;;;4.85;;
65759;SDS011;52496;51.082;5.066;2023-10-13T13:02:29;14.45;;;4.72;;
65759;SDS011;52496;51.082;5.066;2023-10-13T13:05:00;18.65;;;5.35;;
65759;SDS011;52496;51.082;5.066;2023-10-13T13:07:41;14.00;;;4.95;;
65759;SDS011;52496;51.082;5.066;2023-10-13T13:10:22;9.25;;;4.30;;
65759;SDS011;52496;51.082;5.066;2023-10-13T13:13:05;13.43;;;4.53;;
65759;SDS011;52496;51.082;5.066;2023-10-13T13:15:35;12.27;;;4.03;;
65759;SDS011;52496;51.082;5.066;2023-10-13T13:18:06;9.55;;;3.75;;
65759;SDS011;52496;51.082;5.066;2023-10-13T13:20:42;10.13;;;4.70;;
65759;SDS011;52496;51.082;5.066;2023-10-13T13:23:25;11.52;;;4.95;;
65759;SDS011;52496;51.082;5.066;2023-10-13T13:25:59;11.57;;;4.13;;
65759;SDS011;52496;51.082;5.066;2023-10-13T13:28:29;9.55;;;3.88;;
65759;SDS011;52496;51.082;5.066;2023-10-13T13:31:07;9.48;;;5.05;;
65759;SDS011;52496;51.082;5.066;2023-10-13T13:33:38;13.55;;;4.90;;
65759;SDS011;52496;51.082;5.066;2023-10-13T13:36:12;14.20;;;4.07;;
65759;SDS011;52496;51.082;5.066;2023-10-13T13:38:46;13.13;;;5.22;;
65759;SDS011;52496;51.082;5.066;2023-10-13T13:41:18;9.07;;;3.55;;
65759;SDS011;52496;51.082;5.066;2023-10-13T13:43:49;11.80;;;4.28;;
65759;SDS011;52496;51.082;5.066;2023-10-13T13:46:20;11.10;;;4.63;;
65759;SDS011;52496;51.082;5.066;2023-10-13T13:48:57;12.45;;;4.05;;
65759;SDS011;52496;51.082;5.066;2023-10-13T13:51:29;13.70;;;5.05;;
65759;SDS011;52496;51.082;5.066;2023-10-13T13:54:02;8.82;;;4.10;;
65759;SDS011;52496;51.082;5.066;2023-10-13T13:56:36;21.20;;;4.97;;
65759;SDS011;52496;51.082;5.066;2023-10-13T13:59:09;12.38;;;4.38;;
65759;SDS011;52496;51.082;5.066;2023-10-13T14:01:40;11.57;;;4.20;;
65759;SDS011;52496;51.082;5.066;2023-10-13T14:04:10;28.73;;;4.32;;
65759;SDS011;52496;51.082;5.066;2023-10-13T14:06:41;10.27;;;3.90;;
65759;SDS011;52496;51.082;5.066;2023-10-13T14:09:14;14.77;;;4.30;;
65759;SDS011;52496;51.082;5.066;2023-10-13T14:11:46;10.50;;;4.35;;
65759;SDS011;52496;51.082;5.066;2023-10-13T14:14:35;10.57;;;3.83;;
65759;SDS011;52496;51.082;5.066;2023-10-13T14:17:06;12.30;;;4.40;;
65759;SDS011;52496;51.082;5.066;2023-10-13T14:19:36;10.73;;;4.10;;
65759;SDS011;52496;51.082;5.066;2023-10-13T14:22:10;9.05;;;4.40;;
65759;SDS011;52496;51.082;5.066;2023-10-13T14:24:42;11.60;;;4.40;;
65759;SDS011;52496;51.082;5.066;2023-10-13T14:27:24;9.40;;;3.95;;
65759;SDS011;52496;51.082;5.066;2023-10-13T14:29:55;13.73;;;3.95;;
65759;SDS011;52496;51.082;5.066;2023-10-13T14:32:27;7.85;;;4.15;;
65759;SDS011;52496;51.082;5.066;2023-10-13T14:34:58;10.00;;;3.83;;
65759;SDS011;52496;51.082;5.066;2023-10-13T14:37:30;9.35;;;4.03;;
65759;SDS011;52496;51.082;5.066;2023-10-13T14:40:00;8.98;;;3.88;;
65759;SDS011;52496;51.082;5.066;2023-10-13T14:42:31;11.50;;;4.57;;
65759;SDS011;52496;51.082;5.066;2023-10-13T14:45:08;11.18;;;4.90;;
65759;SDS011;52496;51.082;5.066;2023-10-13T14:47:46;8.82;;;3.78;;
65759;SDS011;52496;51.082;5.066;2023-10-13T14:50:16;13.13;;;4.07;;
65759;SDS011;52496;51.082;5.066;2023-10-13T14:52:49;8.52;;;4.07;;
65759;SDS011;52496;51.082;5.066;2023-10-13T14:55:21;8.63;;;4.38;;
65759;SDS011;52496;51.082;5.066;2023-10-13T14:58:03;9.20;;;4.07;;
65759;SDS011;52496;51.082;5.066;2023-10-13T15:00:34;9.10;;;4.47;;
65759;SDS011;52496;51.082;5.066;2023-10-13T15:03:05;9.82;;;5.03;;
65759;SDS011;52496;51.082;5.066;2023-10-13T15:05:39;10.68;;;4.22;;
65759;SDS011;52496;51.082;5.066;2023-10-13T15:08:13;12.35;;;4.28;;
65759;SDS011;52496;51.082;5.066;2023-10-13T15:10:43;11.10;;;4.60;;
65759;SDS011;52496;51.082;5.066;2023-10-13T15:13:14;9.90;;;3.70;;
65759;SDS011;52496;51.082;5.066;2023-10-13T15:15:46;7.40;;;3.53;;
65759;SDS011;52496;51.082;5.066;2023-10-13T15:18:16;10.30;;;4.03;;
65759;SDS011;52496;51.082;5.066;2023-10-13T15:20:47;12.65;;;5.45;;
65759;SDS011;52496;51.082;5.066;2023-10-13T15:23:17;8.60;;;3.72;;
65759;SDS011;52496;51.082;5.066;2023-10-13T15:25:53;9.25;;;4.22;;
65759;SDS011;52496;51.082;5.066;2023-10-13T15:28:24;8.75;;;4.18;;
65759;SDS011;52496;51.082;5.066;2023-10-13T15:31:00;8.25;;;4.43;;
65759;SDS011;52496;51.082;5.066;2023-10-13T15:33:40;9.68;;;4.15;;
65759;SDS011;52496;51.082;5.066;2023-10-13T15:36:13;8.50;;;3.92;;
65759;SDS011;52496;51.082;5.066;2023-10-13T15:38:44;13.93;;;4.53;;
65759;SDS011;52496;51.082;5.066;2023-10-13T15:41:20;9.75;;;4.53;;
65759;SDS011;52496;51.082;5.066;2023-10-13T15:43:52;10.98;;;4.03;;
65759;SDS011;52496;51.082;5.066;2023-10-13T15:46:24;14.25;;;4.57;;
65759;SDS011;52496;51.082;5.066;2023-10-13T15:48:54;8.50;;;4.20;;